sensor_id;sensor_type;location;lat;lon;timestamp;pressure;altitude;pressure_sealevel;temperature;humidity
61961;BME280;47923;42.506;24.192;2023-04-30T00:01:37;94983.97;;;6.37;78.06
61961;BME280;47923;42.506;24.192;2023-04-30T00:04:03;94783.34;;;4.75;77.76
61961;BME280;47923;42.506;24.192;2023-04-30T00:06:28;95250.22;;;7.80;79.48
61961;BME280;47923;42.506;24.192;2023-04-30T00:08:54;95148.00;;;7.04;78.86
61961;BME280;47923;42.506;24.192;2023-04-30T00:11:19;95045.03;;;6.28;79.80
61961;BME280;47923;42.506;24.192;2023-04-30T00:13:45;95243.56;;;7.45;81.57
61961;BME280;47923;42.506;24.192;2023-04-30T00:16:10;95262.50;;;7.37;81.16
61961;BME280;47923;42.506;24.192;2023-04-30T00:18:37;95070.47;;;6.06;82.10
61961;BME280;47923;42.506;24.192;2023-04-30T00:21:02;95224.25;;;7.00;83.33
61961;BME280;47923;42.506;24.192;2023-04-30T00:23:28;95237.97;;;7.10;83.38
61961;BME280;47923;42.506;24.192;2023-04-30T00:25:56;95121.06;;;6.32;83.52
61961;BME280;47923;42.506;24.192;2023-04-30T00:28:21;95222.38;;;6.88;83.34
61961;BME280;47923;42.506;24.192;2023-04-30T00:30:47;95244.41;;;6.93;81.82
61961;BME280;47923;42.506;24.192;2023-04-30T00:33:12;95243.28;;;6.82;82.70
61961;BME280;47923;42.506;24.192;2023-04-30T00:35:38;95099.19;;;5.69;83.87
61961;BME280;47923;42.506;24.192;2023-04-30T00:38:03;95119.88;;;5.93;84.91
61961;BME280;47923;42.506;24.192;2023-04-30T00:40:29;95003.28;;;5.02;86.24
61961;BME280;47923;42.506;24.192;2023-04-30T00:42:54;94877.38;;;4.16;86.26
61961;BME280;47923;42.506;24.192;2023-04-30T00:45:21;95178.31;;;6.12;85.63
61961;BME280;47923;42.506;24.192;2023-04-30T00:47:47;94993.22;;;4.86;84.87
61961;BME280;47923;42.506;24.192;2023-04-30T00:50:14;95240.13;;;6.40;85.75
61961;BME280;47923;42.506;24.192;2023-04-30T00:52:41;95230.16;;;6.28;85.11
61961;BME280;47923;42.506;24.192;2023-04-30T00:55:08;95237.09;;;6.17;87.11
61961;BME280;47923;42.506;24.192;2023-04-30T00:57:34;95211.69;;;5.90;86.68
61961;BME280;47923;42.506;24.192;2023-04-30T01:00:01;95070.31;;;4.93;86.43
61961;BME280;47923;42.506;24.192;2023-04-30T01:02:26;95244.13;;;5.64;86.65
61961;BME280;47923;42.506;24.192;2023-04-30T01:04:53;95101.31;;;4.94;86.28
61961;BME280;47923;42.506;24.192;2023-04-30T01:07:19;95233.00;;;5.74;86.59
61961;BME280;47923;42.506;24.192;2023-04-30T01:09:45;94810.31;;;2.89;86.47
61961;BME280;47923;42.506;24.192;2023-04-30T01:12:36;95129.97;;;4.93;87.30
61961;BME280;47923;42.506;24.192;2023-04-30T01:18:03;95244.97;;;5.44;88.24
61961;BME280;47923;42.506;24.192;2023-04-30T01:20:31;94677.25;;;1.65;87.85
61961;BME280;47923;42.506;24.192;2023-04-30T01:26:10;95184.16;;;4.90;88.01
61961;BME280;47923;42.506;24.192;2023-04-30T01:28:37;95084.72;;;4.26;87.75
61961;BME280;47923;42.506;24.192;2023-04-30T01:31:02;95197.69;;;4.94;87.95
61961;BME280;47923;42.506;24.192;2023-04-30T01:33:35;95097.06;;;4.18;88.06
61961;BME280;47923;42.506;24.192;2023-04-30T01:44:42;95115.22;;;4.04;88.44
61961;BME280;47923;42.506;24.192;2023-04-30T01:50:04;95227.19;;;4.85;86.78
61961;BME280;47923;42.506;24.192;2023-04-30T01:52:42;95229.22;;;4.88;87.36
61961;BME280;47923;42.506;24.192;2023-04-30T01:55:19;95179.72;;;4.53;87.67
61961;BME280;47923;42.506;24.192;2023-04-30T01:58:06;95224.81;;;4.84;87.58
61961;BME280;47923;42.506;24.192;2023-04-30T02:00:33;95089.56;;;3.91;87.40
61961;BME280;47923;42.506;24.192;2023-04-30T02:02:59;95232.84;;;4.84;88.25
61961;BME280;47923;42.506;24.192;2023-04-30T02:05:25;95224.19;;;4.87;89.05
61961;BME280;47923;42.506;24.192;2023-04-30T02:07:51;95218.44;;;4.76;87.77
61961;BME280;47923;42.506;24.192;2023-04-30T02:10:19;95226.72;;;5.04;85.99
61961;BME280;47923;42.506;24.192;2023-04-30T02:12:45;94699.66;;;1.64;85.18
61961;BME280;47923;42.506;24.192;2023-04-30T02:15:11;95227.31;;;5.10;86.01
61961;BME280;47923;42.506;24.192;2023-04-30T02:17:36;94932.09;;;3.14;85.99
61961;BME280;47923;42.506;24.192;2023-04-30T02:20:02;95231.28;;;5.04;86.81
61961;BME280;47923;42.506;24.192;2023-04-30T02:22:27;94978.91;;;3.41;86.85
61961;BME280;47923;42.506;24.192;2023-04-30T02:24:53;95185.16;;;4.65;86.81
61961;BME280;47923;42.506;24.192;2023-04-30T02:27:24;95234.75;;;5.04;86.63
61961;BME280;47923;42.506;24.192;2023-04-30T02:29:51;95027.88;;;3.75;86.92
61961;BME280;47923;42.506;24.192;2023-04-30T02:32:17;95229.22;;;5.09;86.16
61961;BME280;47923;42.506;24.192;2023-04-30T02:34:42;95120.44;;;4.51;85.29
61961;BME280;47923;42.506;24.192;2023-04-30T02:37:08;95230.34;;;5.20;82.73
61961;BME280;47923;42.506;24.192;2023-04-30T02:39:34;95222.13;;;5.25;83.56
61961;BME280;47923;42.506;24.192;2023-04-30T02:41:59;95157.66;;;4.77;84.09
61961;BME280;47923;42.506;24.192;2023-04-30T02:44:25;95216.88;;;4.96;83.65
61961;BME280;47923;42.506;24.192;2023-04-30T02:46:51;95231.59;;;5.23;82.28
61961;BME280;47923;42.506;24.192;2023-04-30T02:49:17;95056.25;;;4.09;83.95
61961;BME280;47923;42.506;24.192;2023-04-30T02:51:42;95233.66;;;5.38;83.77
61961;BME280;47923;42.506;24.192;2023-04-30T02:54:08;95012.06;;;3.91;83.89
61961;BME280;47923;42.506;24.192;2023-04-30T02:56:33;95171.03;;;4.97;84.12
61961;BME280;47923;42.506;24.192;2023-04-30T02:58:59;95120.53;;;4.54;84.31
61961;BME280;47923;42.506;24.192;2023-04-30T03:01:25;94907.84;;;3.28;85.18
61961;BME280;47923;42.506;24.192;2023-04-30T03:03:51;95204.34;;;5.21;85.26
61961;BME280;47923;42.506;24.192;2023-04-30T03:06:17;95120.34;;;4.59;84.49
61961;BME280;47923;42.506;24.192;2023-04-30T03:08:42;95014.28;;;3.59;84.74
61961;BME280;47923;42.506;24.192;2023-04-30T03:11:08;95252.03;;;5.27;84.10
61961;BME280;47923;42.506;24.192;2023-04-30T03:13:33;95043.97;;;3.87;84.09
61961;BME280;47923;42.506;24.192;2023-04-30T03:16:00;95097.06;;;4.18;83.26
61961;BME280;47923;42.506;24.192;2023-04-30T03:18:27;95249.97;;;5.12;83.69
61961;BME280;47923;42.506;24.192;2023-04-30T03:20:52;95234.22;;;4.90;84.72
61961;BME280;47923;42.506;24.192;2023-04-30T03:23:18;94851.00;;;2.47;84.71
61961;BME280;47923;42.506;24.192;2023-04-30T03:25:44;95250.97;;;5.08;84.85
61961;BME280;47923;42.506;24.192;2023-04-30T03:28:09;95247.63;;;5.11;85.05
61961;BME280;47923;42.506;24.192;2023-04-30T03:30:35;95251.59;;;5.25;84.61
61961;BME280;47923;42.506;24.192;2023-04-30T03:33:00;95088.19;;;4.05;84.60
61961;BME280;47923;42.506;24.192;2023-04-30T03:35:26;94986.28;;;3.65;84.49
61961;BME280;47923;42.506;24.192;2023-04-30T03:37:51;95269.09;;;5.56;84.24
61961;BME280;47923;42.506;24.192;2023-04-30T03:40:17;95263.66;;;5.65;83.94
61961;BME280;47923;42.506;24.192;2023-04-30T03:42:43;95262.00;;;5.72;82.57
61961;BME280;47923;42.506;24.192;2023-04-30T03:45:09;95143.91;;;4.99;81.85
61961;BME280;47923;42.506;24.192;2023-04-30T03:47:34;95058.63;;;4.64;80.23
61961;BME280;47923;42.506;24.192;2023-04-30T03:50:01;95150.81;;;5.33;79.93
61961;BME280;47923;42.506;24.192;2023-04-30T03:52:28;95056.56;;;4.94;79.52
61961;BME280;47923;42.506;24.192;2023-04-30T03:54:53;95273.09;;;6.41;78.98
61961;BME280;47923;42.506;24.192;2023-04-30T03:57:19;95215.41;;;6.22;79.12
61961;BME280;47923;42.506;24.192;2023-04-30T03:59:44;95300.47;;;6.83;78.56
61961;BME280;47923;42.506;24.192;2023-04-30T04:02:10;95220.97;;;7.06;78.93
61961;BME280;47923;42.506;24.192;2023-04-30T04:04:36;95284.63;;;8.34;73.92
61961;BME280;47923;42.506;24.192;2023-04-30T04:07:01;95285.44;;;9.97;69.85
61961;BME280;47923;42.506;24.192;2023-04-30T04:09:28;95135.59;;;10.87;61.15
61961;BME280;47923;42.506;24.192;2023-04-30T04:11:53;95293.19;;;13.03;54.23
61961;BME280;47923;42.506;24.192;2023-04-30T04:14:19;94909.50;;;12.26;49.45
61961;BME280;47923;42.506;24.192;2023-04-30T04:16:44;95230.53;;;15.93;44.45
61961;BME280;47923;42.506;24.192;2023-04-30T04:19:11;95130.59;;;16.35;40.97
61961;BME280;47923;42.506;24.192;2023-04-30T04:21:37;95286.88;;;18.24;39.13
61961;BME280;47923;42.506;24.192;2023-04-30T04:24:03;95194.63;;;17.74;39.15
61961;BME280;47923;42.506;24.192;2023-04-30T04:26:34;95104.75;;;16.06;40.42
61961;BME280;47923;42.506;24.192;2023-04-30T04:29:00;95175.38;;;14.48;45.05
61961;BME280;47923;42.506;24.192;2023-04-30T04:31:26;95290.25;;;15.45;45.02
61961;BME280;47923;42.506;24.192;2023-04-30T04:33:52;95277.47;;;16.22;43.42
61961;BME280;47923;42.506;24.192;2023-04-30T04:36:26;95281.78;;;16.79;42.09
61961;BME280;47923;42.506;24.192;2023-04-30T04:38:52;95056.75;;;16.94;38.73
61961;BME280;47923;42.506;24.192;2023-04-30T04:41:18;95072.13;;;18.19;35.84
61961;BME280;47923;42.506;24.192;2023-04-30T04:43:43;95158.72;;;20.12;33.79
61961;BME280;47923;42.506;24.192;2023-04-30T04:46:09;95135.28;;;20.60;32.34
61961;BME280;47923;42.506;24.192;2023-04-30T04:48:35;95281.78;;;22.31;31.42
61961;BME280;47923;42.506;24.192;2023-04-30T04:51:00;95146.38;;;22.49;29.81
61961;BME280;47923;42.506;24.192;2023-04-30T04:53:26;95248.69;;;21.35;31.83
61961;BME280;47923;42.506;24.192;2023-04-30T04:55:51;95247.78;;;22.50;30.39
61961;BME280;47923;42.506;24.192;2023-04-30T04:58:17;95274.22;;;21.03;32.47
61961;BME280;47923;42.506;24.192;2023-04-30T05:00:43;95296.69;;;19.26;35.40
61961;BME280;47923;42.506;24.192;2023-04-30T05:03:09;95217.97;;;17.45;38.02
61961;BME280;47923;42.506;24.192;2023-04-30T05:05:35;95139.75;;;15.44;41.18
61961;BME280;47923;42.506;24.192;2023-04-30T05:08:00;95263.47;;;16.24;42.26
61961;BME280;47923;42.506;24.192;2023-04-30T05:10:26;95289.97;;;17.24;41.23
61961;BME280;47923;42.506;24.192;2023-04-30T05:12:51;95172.13;;;17.93;37.65
61961;BME280;47923;42.506;24.192;2023-04-30T05:15:17;95292.44;;;21.58;33.34
61961;BME280;47923;42.506;24.192;2023-04-30T05:17:42;95156.94;;;23.54;28.96
61961;BME280;47923;42.506;24.192;2023-04-30T05:20:08;95286.16;;;25.70;26.43
61961;BME280;47923;42.506;24.192;2023-04-30T05:22:34;95221.44;;;25.67;25.78
61961;BME280;47923;42.506;24.192;2023-04-30T05:24:59;95204.00;;;26.64;24.21
61961;BME280;47923;42.506;24.192;2023-04-30T05:27:25;95241.03;;;27.57;23.08
61961;BME280;47923;42.506;24.192;2023-04-30T05:29:51;95278.59;;;28.65;22.73
61961;BME280;47923;42.506;24.192;2023-04-30T05:32:16;95283.06;;;29.62;21.16
61961;BME280;47923;42.506;24.192;2023-04-30T05:34:42;95251.84;;;29.37;20.73
61961;BME280;47923;42.506;24.192;2023-04-30T05:37:07;95298.25;;;30.07;20.46
61961;BME280;47923;42.506;24.192;2023-04-30T05:39:33;95269.25;;;30.45;20.27
61961;BME280;47923;42.506;24.192;2023-04-30T05:41:58;95190.03;;;30.20;19.24
61961;BME280;47923;42.506;24.192;2023-04-30T05:44:24;95122.22;;;31.20;18.57
61961;BME280;47923;42.506;24.192;2023-04-30T05:46:49;95232.03;;;31.77;18.16
61961;BME280;47923;42.506;24.192;2023-04-30T05:49:15;95264.19;;;31.13;18.49
61961;BME280;47923;42.506;24.192;2023-04-30T05:51:40;95161.41;;;31.54;17.77
61961;BME280;47923;42.506;24.192;2023-04-30T05:54:06;94884.78;;;29.60;17.93
61961;BME280;47923;42.506;24.192;2023-04-30T05:56:32;95225.91;;;31.13;18.73
61961;BME280;47923;42.506;24.192;2023-04-30T05:58:57;95244.66;;;32.88;17.79
61961;BME280;47923;42.506;24.192;2023-04-30T06:01:23;95239.72;;;33.44;16.79
61961;BME280;47923;42.506;24.192;2023-04-30T06:03:49;95258.13;;;32.84;17.35
61961;BME280;47923;42.506;24.192;2023-04-30T06:06:15;95259.78;;;34.18;16.28
61961;BME280;47923;42.506;24.192;2023-04-30T06:08:40;95128.41;;;30.87;18.10
61961;BME280;47923;42.506;24.192;2023-04-30T06:11:09;95278.72;;;32.47;18.14
61961;BME280;47923;42.506;24.192;2023-04-30T06:13:35;95217.09;;;33.25;17.18
61961;BME280;47923;42.506;24.192;2023-04-30T06:16:01;95277.03;;;31.36;18.15
61961;BME280;47923;42.506;24.192;2023-04-30T06:18:26;95179.63;;;33.51;16.36
61961;BME280;47923;42.506;24.192;2023-04-30T06:20:52;95258.00;;;33.57;16.19
61961;BME280;47923;42.506;24.192;2023-04-30T06:23:17;95183.22;;;34.64;16.05
61961;BME280;47923;42.506;24.192;2023-04-30T06:25:43;95214.59;;;35.17;14.38
61961;BME280;47923;42.506;24.192;2023-04-30T06:28:08;95265.78;;;35.78;14.70
61961;BME280;47923;42.506;24.192;2023-04-30T06:30:35;94843.31;;;33.00;14.85
61961;BME280;47923;42.506;24.192;2023-04-30T06:33:00;95236.00;;;36.44;15.05
61961;BME280;47923;42.506;24.192;2023-04-30T06:35:26;95253.25;;;34.45;16.21
61961;BME280;47923;42.506;24.192;2023-04-30T06:37:52;95205.25;;;32.75;16.71
61961;BME280;47923;42.506;24.192;2023-04-30T06:40:17;95145.03;;;32.23;17.55
61961;BME280;47923;42.506;24.192;2023-04-30T06:42:44;95248.66;;;32.08;18.30
61961;BME280;47923;42.506;24.192;2023-04-30T06:45:10;95209.16;;;35.68;14.88
61961;BME280;47923;42.506;24.192;2023-04-30T06:47:36;95078.03;;;34.52;14.80
61961;BME280;47923;42.506;24.192;2023-04-30T06:50:03;95198.44;;;35.04;15.24
61961;BME280;47923;42.506;24.192;2023-04-30T06:52:29;95178.09;;;34.02;16.85
61961;BME280;47923;42.506;24.192;2023-04-30T06:54:55;95235.69;;;36.48;14.72
61961;BME280;47923;42.506;24.192;2023-04-30T06:57:21;95138.06;;;37.41;14.36
61961;BME280;47923;42.506;24.192;2023-04-30T06:59:46;94891.34;;;35.45;13.83
61961;BME280;47923;42.506;24.192;2023-04-30T07:02:12;95006.81;;;35.41;14.48
61961;BME280;47923;42.506;24.192;2023-04-30T07:04:38;95208.63;;;36.45;14.28
61961;BME280;47923;42.506;24.192;2023-04-30T07:07:03;95173.66;;;36.86;14.41
61961;BME280;47923;42.506;24.192;2023-04-30T07:09:29;95179.81;;;34.47;15.80
61961;BME280;47923;42.506;24.192;2023-04-30T07:11:56;95219.22;;;32.75;17.67
61961;BME280;47923;42.506;24.192;2023-04-30T07:14:22;95224.31;;;35.16;15.78
61961;BME280;47923;42.506;24.192;2023-04-30T07:16:51;95219.06;;;37.22;14.71
61961;BME280;47923;42.506;24.192;2023-04-30T07:19:16;95212.88;;;37.23;14.10
61961;BME280;47923;42.506;24.192;2023-04-30T07:21:42;95223.31;;;38.91;13.22
61961;BME280;47923;42.506;24.192;2023-04-30T07:24:08;95215.66;;;39.49;12.40
61961;BME280;47923;42.506;24.192;2023-04-30T07:26:33;95128.53;;;39.68;11.42
61961;BME280;47923;42.506;24.192;2023-04-30T07:29:00;95190.25;;;39.00;12.21
61961;BME280;47923;42.506;24.192;2023-04-30T07:31:25;95207.63;;;39.61;11.89
61961;BME280;47923;42.506;24.192;2023-04-30T07:33:51;95176.81;;;40.75;10.79
61961;BME280;47923;42.506;24.192;2023-04-30T07:36:17;95161.88;;;41.28;10.22
61961;BME280;47923;42.506;24.192;2023-04-30T07:38:42;95214.03;;;38.62;11.14
61961;BME280;47923;42.506;24.192;2023-04-30T07:41:09;95033.25;;;38.19;11.87
61961;BME280;47923;42.506;24.192;2023-04-30T07:43:34;95168.56;;;36.84;12.34
61961;BME280;47923;42.506;24.192;2023-04-30T07:46:00;95211.25;;;39.69;11.50
61961;BME280;47923;42.506;24.192;2023-04-30T07:48:26;95117.44;;;39.34;10.76
61961;BME280;47923;42.506;24.192;2023-04-30T07:50:52;95159.78;;;40.14;10.50
61961;BME280;47923;42.506;24.192;2023-04-30T07:53:17;95221.91;;;39.27;11.06
61961;BME280;47923;42.506;24.192;2023-04-30T07:55:43;95159.44;;;36.65;12.92
61961;BME280;47923;42.506;24.192;2023-04-30T07:58:08;95155.22;;;35.32;14.70
61961;BME280;47923;42.506;24.192;2023-04-30T08:00:33;95219.31;;;34.07;14.90
61961;BME280;47923;42.506;24.192;2023-04-30T08:02:59;95183.59;;;30.72;17.14
61961;BME280;47923;42.506;24.192;2023-04-30T08:05:25;95186.91;;;29.20;18.64
61961;BME280;47923;42.506;24.192;2023-04-30T08:07:51;95208.38;;;28.84;19.47
61961;BME280;47923;42.506;24.192;2023-04-30T08:10:17;95064.13;;;27.37;20.80
61961;BME280;47923;42.506;24.192;2023-04-30T08:12:42;95227.72;;;27.99;21.57
61961;BME280;47923;42.506;24.192;2023-04-30T08:15:08;95213.38;;;27.86;21.16
61961;BME280;47923;42.506;24.192;2023-04-30T08:17:36;95243.66;;;26.79;22.29
61961;BME280;47923;42.506;24.192;2023-04-30T08:20:03;95099.75;;;24.48;23.25
61961;BME280;47923;42.506;24.192;2023-04-30T08:22:29;95242.50;;;25.28;24.95
61961;BME280;47923;42.506;24.192;2023-04-30T08:24:55;95233.00;;;25.66;24.00
61961;BME280;47923;42.506;24.192;2023-04-30T08:27:21;95174.31;;;25.16;23.92
61961;BME280;47923;42.506;24.192;2023-04-30T08:29:47;94996.13;;;23.97;24.22
61961;BME280;47923;42.506;24.192;2023-04-30T08:32:13;95235.59;;;25.69;24.01
61961;BME280;47923;42.506;24.192;2023-04-30T08:34:38;95234.06;;;25.96;23.60
61961;BME280;47923;42.506;24.192;2023-04-30T08:37:07;95231.19;;;24.95;24.88
61961;BME280;47923;42.506;24.192;2023-04-30T08:39:33;95217.47;;;24.64;25.23
61961;BME280;47923;42.506;24.192;2023-04-30T08:42:01;95236.47;;;25.11;25.19
61961;BME280;47923;42.506;24.192;2023-04-30T08:44:29;95240.34;;;25.23;25.18
61961;BME280;47923;42.506;24.192;2023-04-30T08:46:56;95223.78;;;24.33;25.35
61961;BME280;47923;42.506;24.192;2023-04-30T08:49:24;95125.66;;;23.48;26.23
61961;BME280;47923;42.506;24.192;2023-04-30T08:51:51;95233.44;;;24.07;26.53
61961;BME280;47923;42.506;24.192;2023-04-30T08:54:17;95227.06;;;24.19;26.81
61961;BME280;47923;42.506;24.192;2023-04-30T08:56:48;95234.66;;;24.06;26.64
61961;BME280;47923;42.506;24.192;2023-04-30T08:59:14;95234.16;;;24.29;26.29
61961;BME280;47923;42.506;24.192;2023-04-30T09:01:40;95116.16;;;23.49;26.65
61961;BME280;47923;42.506;24.192;2023-04-30T09:04:05;95233.63;;;24.12;26.55
61961;BME280;47923;42.506;24.192;2023-04-30T09:06:31;95234.63;;;24.27;26.67
61961;BME280;47923;42.506;24.192;2023-04-30T09:09:07;95227.19;;;24.87;25.73
61961;BME280;47923;42.506;24.192;2023-04-30T09:11:33;95228.06;;;25.24;25.32
61961;BME280;47923;42.506;24.192;2023-04-30T09:14:00;95222.69;;;25.84;24.61
61961;BME280;47923;42.506;24.192;2023-04-30T09:16:43;95178.44;;;26.27;23.78
61961;BME280;47923;42.506;24.192;2023-04-30T09:19:30;95076.91;;;26.81;21.94
61961;BME280;47923;42.506;24.192;2023-04-30T09:21:55;95210.50;;;29.91;19.73
61961;BME280;47923;42.506;24.192;2023-04-30T09:24:22;95206.38;;;30.39;19.34
61961;BME280;47923;42.506;24.192;2023-04-30T09:26:48;95130.50;;;31.69;17.81
61961;BME280;47923;42.506;24.192;2023-04-30T09:29:15;95116.53;;;33.44;16.11
61961;BME280;47923;42.506;24.192;2023-04-30T09:31:43;95153.69;;;34.27;14.87
61961;BME280;47923;42.506;24.192;2023-04-30T09:34:12;95190.16;;;34.57;16.04
61961;BME280;47923;42.506;24.192;2023-04-30T09:36:53;95122.38;;;32.66;15.24
61961;BME280;47923;42.506;24.192;2023-04-30T09:39:19;95179.34;;;32.35;16.85
61961;BME280;47923;42.506;24.192;2023-04-30T09:41:45;95184.50;;;31.49;17.50
61961;BME280;47923;42.506;24.192;2023-04-30T09:44:34;95191.91;;;31.09;17.62
61961;BME280;47923;42.506;24.192;2023-04-30T09:46:59;95199.94;;;31.39;17.88
61961;BME280;47923;42.506;24.192;2023-04-30T09:49:25;95185.28;;;31.55;17.00
61961;BME280;47923;42.506;24.192;2023-04-30T09:52:00;95191.47;;;30.73;17.92
61961;BME280;47923;42.506;24.192;2023-04-30T09:54:30;95174.09;;;29.69;19.11
61961;BME280;47923;42.506;24.192;2023-04-30T09:57:00;95188.47;;;28.71;19.61
61961;BME280;47923;42.506;24.192;2023-04-30T09:59:34;95201.03;;;27.24;20.84
61961;BME280;47923;42.506;24.192;2023-04-30T10:02:03;95194.34;;;26.59;22.11
61961;BME280;47923;42.506;24.192;2023-04-30T10:04:30;95197.81;;;25.75;23.03
61961;BME280;47923;42.506;24.192;2023-04-30T10:06:57;95173.00;;;24.89;23.94
61961;BME280;47923;42.506;24.192;2023-04-30T10:09:31;94992.69;;;23.66;24.34
61961;BME280;47923;42.506;24.192;2023-04-30T10:12:02;95185.16;;;24.92;24.78
61961;BME280;47923;42.506;24.192;2023-04-30T10:14:29;95155.69;;;23.99;25.70
61961;BME280;47923;42.506;24.192;2023-04-30T10:17:12;95202.19;;;24.10;26.39
61961;BME280;47923;42.506;24.192;2023-04-30T10:19:39;95196.84;;;24.15;26.17
61961;BME280;47923;42.506;24.192;2023-04-30T10:22:08;95189.97;;;24.60;26.24
61961;BME280;47923;42.506;24.192;2023-04-30T10:24:35;95189.75;;;24.86;25.52
61961;BME280;47923;42.506;24.192;2023-04-30T10:27:01;95128.88;;;24.40;25.72
61961;BME280;47923;42.506;24.192;2023-04-30T10:29:27;94858.63;;;23.19;24.80
61961;BME280;47923;42.506;24.192;2023-04-30T10:31:53;95187.81;;;25.32;24.82
61961;BME280;47923;42.506;24.192;2023-04-30T10:37:35;95185.53;;;24.22;26.21
61961;BME280;47923;42.506;24.192;2023-04-30T10:40:03;94904.81;;;22.53;25.99
61961;BME280;47923;42.506;24.192;2023-04-30T10:42:29;94963.78;;;22.86;26.43
61961;BME280;47923;42.506;24.192;2023-04-30T10:44:55;95152.84;;;24.12;26.05
61961;BME280;47923;42.506;24.192;2023-04-30T10:47:27;95030.75;;;23.05;25.30
61961;BME280;47923;42.506;24.192;2023-04-30T10:50:03;95179.78;;;24.08;25.16
61961;BME280;47923;42.506;24.192;2023-04-30T10:52:29;95176.69;;;23.96;24.71
61961;BME280;47923;42.506;24.192;2023-04-30T10:54:55;95121.81;;;23.98;23.81
61961;BME280;47923;42.506;24.192;2023-04-30T10:57:20;95183.69;;;24.19;24.15
61961;BME280;47923;42.506;24.192;2023-04-30T11:02:15;95178.69;;;23.52;25.75
61961;BME280;47923;42.506;24.192;2023-04-30T11:07:32;95144.56;;;23.81;25.86
61961;BME280;47923;42.506;24.192;2023-04-30T11:09:57;95161.94;;;24.31;25.43
61961;BME280;47923;42.506;24.192;2023-04-30T11:12:26;95153.22;;;23.70;25.42
61961;BME280;47923;42.506;24.192;2023-04-30T11:15:05;95147.66;;;23.39;26.12
61961;BME280;47923;42.506;24.192;2023-04-30T11:17:31;95168.47;;;23.40;26.37
61961;BME280;47923;42.506;24.192;2023-04-30T11:19:59;94977.56;;;21.44;27.13
61961;BME280;47923;42.506;24.192;2023-04-30T11:22:26;94966.56;;;21.70;26.67
61961;BME280;47923;42.506;24.192;2023-04-30T11:25:02;95123.84;;;22.88;26.46
61961;BME280;47923;42.506;24.192;2023-04-30T11:27:30;95174.31;;;23.42;25.91
61961;BME280;47923;42.506;24.192;2023-04-30T11:29:57;95123.59;;;22.96;26.21
61961;BME280;47923;42.506;24.192;2023-04-30T11:32:34;95095.25;;;22.60;26.73
61961;BME280;47923;42.506;24.192;2023-04-30T11:35:02;95183.47;;;23.17;27.45
61961;BME280;47923;42.506;24.192;2023-04-30T11:37:33;95120.09;;;21.97;30.35
61961;BME280;47923;42.506;24.192;2023-04-30T11:40:06;95202.25;;;22.07;30.89
61961;BME280;47923;42.506;24.192;2023-04-30T11:42:33;95091.00;;;21.58;30.88
61961;BME280;47923;42.506;24.192;2023-04-30T11:47:46;95198.13;;;22.28;29.24
61961;BME280;47923;42.506;24.192;2023-04-30T11:50:15;95188.50;;;22.07;29.55
61961;BME280;47923;42.506;24.192;2023-04-30T11:52:41;95194.16;;;22.17;29.29
61961;BME280;47923;42.506;24.192;2023-04-30T11:55:18;95122.88;;;21.42;30.23
61961;BME280;47923;42.506;24.192;2023-04-30T11:57:45;95188.22;;;21.64;30.24
61961;BME280;47923;42.506;24.192;2023-04-30T12:00:30;95029.19;;;20.53;30.01
61961;BME280;47923;42.506;24.192;2023-04-30T12:02:58;95202.94;;;21.28;30.65
61961;BME280;47923;42.506;24.192;2023-04-30T12:05:25;95161.25;;;21.46;30.49
61961;BME280;47923;42.506;24.192;2023-04-30T12:07:58;95210.13;;;21.80;30.40
61961;BME280;47923;42.506;24.192;2023-04-30T12:10:24;95128.84;;;21.24;30.61
61961;BME280;47923;42.506;24.192;2023-04-30T12:12:52;95203.56;;;21.90;30.79
61961;BME280;47923;42.506;24.192;2023-04-30T12:15:20;95206.78;;;21.89;31.27
61961;BME280;47923;42.506;24.192;2023-04-30T12:17:57;95193.19;;;21.69;31.44
61961;BME280;47923;42.506;24.192;2023-04-30T12:20:28;95075.28;;;20.13;32.42
61961;BME280;47923;42.506;24.192;2023-04-30T12:22:54;95214.25;;;20.68;32.87
61961;BME280;47923;42.506;24.192;2023-04-30T12:25:21;95224.25;;;20.42;33.27
61961;BME280;47923;42.506;24.192;2023-04-30T12:27:48;95229.31;;;20.28;34.11
61961;BME280;47923;42.506;24.192;2023-04-30T12:30:18;95068.75;;;18.78;35.90
61961;BME280;47923;42.506;24.192;2023-04-30T12:32:48;95224.59;;;19.09;41.14
61961;BME280;47923;42.506;24.192;2023-04-30T12:35:20;95238.63;;;18.64;46.64
61961;BME280;47923;42.506;24.192;2023-04-30T12:37:49;95199.53;;;17.56;51.93
61961;BME280;47923;42.506;24.192;2023-04-30T12:40:17;95170.78;;;16.72;53.71
61961;BME280;47923;42.506;24.192;2023-04-30T12:42:43;95255.31;;;16.76;56.67
61961;BME280;47923;42.506;24.192;2023-04-30T12:45:10;95251.47;;;16.66;56.02
61961;BME280;47923;42.506;24.192;2023-04-30T12:47:40;95238.75;;;16.49;57.28
61961;BME280;47923;42.506;24.192;2023-04-30T12:50:10;95230.41;;;16.18;57.32
61961;BME280;47923;42.506;24.192;2023-04-30T12:52:38;95240.69;;;15.89;56.30
61961;BME280;47923;42.506;24.192;2023-04-30T12:55:18;95256.09;;;16.17;55.23
61961;BME280;47923;42.506;24.192;2023-04-30T13:00:51;95090.25;;;15.67;50.21
61961;BME280;47923;42.506;24.192;2023-04-30T13:03:18;95204.94;;;16.88;48.33
61961;BME280;47923;42.506;24.192;2023-04-30T13:05:49;95225.44;;;17.40;46.88
61961;BME280;47923;42.506;24.192;2023-04-30T13:08:15;95125.59;;;16.71;46.14
61961;BME280;47923;42.506;24.192;2023-04-30T13:10:41;94994.94;;;15.67;45.85
61961;BME280;47923;42.506;24.192;2023-04-30T13:13:06;95218.41;;;17.39;45.67
61961;BME280;47923;42.506;24.192;2023-04-30T13:15:32;95146.13;;;17.17;44.53
61961;BME280;47923;42.506;24.192;2023-04-30T13:17:57;94880.69;;;15.53;44.02
61961;BME280;47923;42.506;24.192;2023-04-30T13:20:23;95194.16;;;17.49;43.79
61961;BME280;47923;42.506;24.192;2023-04-30T13:22:51;95146.53;;;17.19;42.88
61961;BME280;47923;42.506;24.192;2023-04-30T13:25:18;95086.81;;;16.91;42.63